Terminal Aerodrome Forecast
Issued by NWS Blacksburg, VA

Current Version | Previous Version | Graphics & Text | Print | Product List | Glossary On
Versions: 1 2 3 4 5 6 7 8 9 10 11 12 13 14 15 16 17 18 19 20 21 22 23 24 25 26 27 28 29 30 31 32 33 34 35 36 37 38 39 40 41 42 43 44 45 46
325
FTUS41 KRNK 281137
TAFBLF
TAF
KBLF 281137Z 2812/2912 23005KT P6SM SCT090
     FM281400 25006KT P6SM BKN050
      TEMPO 2819/2821 2SM TSRA OVC035CB
     FM290300 25005KT P6SM SHRA VCTS OVC025CB
     FM290800 26007KT P6SM OVC010=

USA.gov is the U.S. government's official web portal to all federal, state and local government web resources and services.